createdAt,value
2022-08-24T00:01:18.946Z,100.00
2022-08-24T00:03:46.600Z,100.00
2022-08-24T00:06:17.057Z,100.00
2022-08-24T00:08:44.926Z,100.00
2022-08-24T00:11:11.655Z,100.00
2022-08-24T00:13:39.596Z,100.00
2022-08-24T00:16:07.635Z,100.00
2022-08-24T00:18:34.603Z,100.00
2022-08-24T00:21:02.149Z,100.00
2022-08-24T00:23:29.625Z,100.00
2022-08-24T00:25:56.685Z,100.00
2022-08-24T00:28:23.917Z,100.00
2022-08-24T00:30:50.891Z,100.00
2022-08-24T00:33:17.825Z,100.00
2022-08-24T00:35:44.895Z,100.00
2022-08-24T00:38:12.141Z,100.00
2022-08-24T00:40:42.104Z,100.00
2022-08-24T00:43:11.200Z,100.00
2022-08-24T00:45:44.781Z,100.00
2022-08-24T00:48:26.254Z,100.00
2022-08-24T00:51:22.058Z,100.00
2022-08-24T00:53:54.935Z,100.00
2022-08-24T00:56:26.511Z,100.00
2022-08-24T00:58:58.147Z,100.00
2022-08-24T01:01:26.184Z,100.00
2022-08-24T01:03:56.827Z,100.00
2022-08-24T01:06:24.450Z,100.00
2022-08-24T01:08:56.389Z,100.00
2022-08-24T01:11:27.482Z,100.00
2022-08-24T01:13:58.073Z,100.00
2022-08-24T01:16:43.467Z,100.00
2022-08-24T01:19:22.870Z,100.00
2022-08-24T01:22:28.271Z,100.00
2022-08-24T01:24:55.132Z,100.00
2022-08-24T01:27:27.906Z,100.00
2022-08-24T01:29:56.276Z,100.00
2022-08-24T01:32:24.572Z,100.00
2022-08-24T01:34:51.556Z,100.00
2022-08-24T01:37:18.313Z,100.00
2022-08-24T01:39:46.800Z,100.00
2022-08-24T01:42:14.505Z,100.00
2022-08-24T01:44:43.514Z,100.00
2022-08-24T01:47:11.911Z,100.00
2022-08-24T01:49:42.665Z,100.00
2022-08-24T01:52:12.728Z,100.00
2022-08-24T01:54:40.373Z,100.00
2022-08-24T01:57:10.818Z,100.00
2022-08-24T01:59:41.928Z,100.00
2022-08-24T02:02:21.124Z,100.00
2022-08-24T02:04:47.962Z,100.00
2022-08-24T02:07:14.723Z,100.00
2022-08-24T02:09:41.599Z,100.00
2022-08-24T02:12:09.168Z,100.00
2022-08-24T02:14:36.964Z,100.00
2022-08-24T02:17:08.289Z,100.00
2022-08-24T02:19:35.979Z,100.00
2022-08-24T02:22:02.832Z,100.00
2022-08-24T02:24:29.641Z,100.00
2022-08-24T02:26:56.855Z,100.00
2022-08-24T02:29:24.303Z,100.00
2022-08-24T02:31:51.336Z,100.00
2022-08-24T02:34:18.203Z,100.00
2022-08-24T02:36:45.790Z,100.00
2022-08-24T02:39:12.630Z,100.00
2022-08-24T02:41:39.648Z,100.00
2022-08-24T02:44:07.176Z,100.00
2022-08-24T02:46:34.868Z,100.00
2022-08-24T02:49:10.519Z,100.00
2022-08-24T02:51:44.980Z,100.00
2022-08-24T02:54:18.418Z,100.00
2022-08-24T02:56:47.685Z,100.00
2022-08-24T02:59:16.323Z,100.00
2022-08-24T03:01:43.968Z,100.00
2022-08-24T03:04:12.128Z,100.00
2022-08-24T03:06:42.930Z,100.00
2022-08-24T03:09:10.842Z,100.00
2022-08-24T03:11:38.296Z,100.00
2022-08-24T03:14:05.641Z,100.00
2022-08-24T03:16:32.792Z,100.00
2022-08-24T03:19:00.711Z,100.00
2022-08-24T03:21:30.297Z,100.00
2022-08-24T03:23:57.156Z,100.00
2022-08-24T03:26:23.909Z,100.00
2022-08-24T03:28:52.539Z,100.00
2022-08-24T03:31:19.955Z,100.00
2022-08-24T03:33:48.391Z,100.00
2022-08-24T03:36:15.396Z,100.00
2022-08-24T03:38:43.543Z,100.00
2022-08-24T03:41:11.400Z,100.00
2022-08-24T03:43:48.999Z,100.00
2022-08-24T03:46:22.277Z,100.00
2022-08-24T03:48:52.607Z,100.00
2022-08-24T03:51:25.082Z,100.00
2022-08-24T03:53:52.664Z,100.00
2022-08-24T03:56:22.423Z,100.00
2022-08-24T03:58:49.506Z,100.00
2022-08-24T04:01:17.806Z,100.00
2022-08-24T04:03:46.992Z,100.00
2022-08-24T04:06:16.618Z,100.00
2022-08-24T04:08:43.969Z,100.00
2022-08-24T04:11:13.000Z,100.00
2022-08-24T04:13:40.713Z,100.00
2022-08-24T04:16:08.930Z,100.00
2022-08-24T04:18:36.086Z,100.00
2022-08-24T04:21:03.620Z,100.00
2022-08-24T04:23:47.013Z,100.00
2022-08-24T04:26:26.788Z,100.00
2022-08-24T04:29:08.095Z,100.00
2022-08-24T04:31:40.662Z,100.00
2022-08-24T04:34:08.305Z,100.00
2022-08-24T04:36:35.588Z,100.00
2022-08-24T04:39:03.579Z,100.00
2022-08-24T04:42:03.147Z,100.00
2022-08-24T04:44:34.887Z,100.00
2022-08-24T04:47:01.828Z,100.00
2022-08-24T04:49:29.903Z,100.00
2022-08-24T04:51:56.897Z,100.00
2022-08-24T04:54:24.814Z,100.00
2022-08-24T04:57:06.062Z,100.00
2022-08-24T04:59:33.099Z,100.00
2022-08-24T05:02:00.033Z,100.00
2022-08-24T05:04:27.046Z,100.00
2022-08-24T05:06:54.503Z,100.00
2022-08-24T05:09:24.268Z,100.00
2022-08-24T05:11:51.232Z,100.00
2022-08-24T05:14:25.665Z,100.00
2022-08-24T05:16:55.482Z,100.00
2022-08-24T05:19:23.538Z,100.00
2022-08-24T05:21:51.018Z,100.00
2022-08-24T05:24:19.659Z,100.00
2022-08-24T05:26:46.651Z,100.00
2022-08-24T05:29:14.614Z,100.00
2022-08-24T05:31:46.559Z,100.00
2022-08-24T05:34:14.626Z,100.00
2022-08-24T05:36:42.634Z,100.00
2022-08-24T05:39:17.178Z,100.00
2022-08-24T05:41:51.926Z,100.00
2022-08-24T05:44:27.888Z,100.00
2022-08-24T05:46:59.493Z,100.00
2022-08-24T05:49:26.473Z,93.58
2022-08-24T05:51:53.980Z,83.51
2022-08-24T05:54:22.924Z,75.93
2022-08-24T05:56:55.485Z,69.46
2022-08-24T05:59:23.454Z,64.16
2022-08-24T06:01:51.714Z,60.61
2022-08-24T06:04:18.466Z,58.71
2022-08-24T06:06:48.799Z,56.31
2022-08-24T06:09:16.659Z,53.22
2022-08-24T06:11:45.676Z,51.28
2022-08-24T06:14:15.759Z,50.69
2022-08-24T06:16:52.614Z,50.32
2022-08-24T06:19:20.407Z,47.27
2022-08-24T06:21:49.479Z,45.26
2022-08-24T06:24:16.915Z,46.20
2022-08-24T06:27:04.232Z,45.95
2022-08-24T06:29:34.010Z,46.06
2022-08-24T06:32:21.635Z,46.49
2022-08-24T06:34:48.525Z,45.72
2022-08-24T06:37:16.758Z,45.61
2022-08-24T06:39:44.010Z,43.95
2022-08-24T06:42:11.061Z,45.17
2022-08-24T06:44:43.137Z,47.93
2022-08-24T06:47:18.988Z,54.44
2022-08-24T06:49:45.980Z,61.89
2022-08-24T06:52:13.014Z,67.92
2022-08-24T06:54:39.893Z,74.09
2022-08-24T06:57:07.186Z,79.41
2022-08-24T06:59:34.083Z,79.96
2022-08-24T07:02:01.539Z,80.18
2022-08-24T07:04:29.454Z,79.92
2022-08-24T07:07:19.406Z,78.81
2022-08-24T07:09:46.102Z,75.97
2022-08-24T07:12:12.820Z,75.26
2022-08-24T07:14:39.557Z,77.67
2022-08-24T07:17:06.910Z,80.13
2022-08-24T07:19:33.662Z,83.48
2022-08-24T07:22:01.287Z,86.96
2022-08-24T07:24:31.094Z,93.19
2022-08-24T07:26:57.767Z,95.45
2022-08-24T07:29:46.272Z,98.92
2022-08-24T07:32:13.144Z,99.81
2022-08-24T07:34:43.825Z,100.00
2022-08-24T07:37:10.548Z,100.00
2022-08-24T07:39:41.095Z,100.00
2022-08-24T07:42:13.870Z,100.00
2022-08-24T07:44:50.037Z,100.00
2022-08-24T07:50:08.418Z,100.00
2022-08-24T07:52:35.423Z,100.00
2022-08-24T07:55:02.360Z,100.00
2022-08-24T07:57:30.114Z,100.00
2022-08-24T08:00:00.823Z,100.00
2022-08-24T08:02:30.822Z,100.00
2022-08-24T08:05:03.960Z,100.00
2022-08-24T08:07:33.596Z,100.00
2022-08-24T08:10:05.229Z,100.00
2022-08-24T08:12:32.697Z,100.00
2022-08-24T08:15:04.663Z,100.00
2022-08-24T08:17:35.081Z,100.00
2022-08-24T08:20:05.806Z,100.00
2022-08-24T08:22:54.715Z,96.88
2022-08-24T08:25:54.962Z,99.09
2022-08-24T08:28:35.620Z,99.80
2022-08-24T08:31:05.329Z,100.00
2022-08-24T08:33:39.065Z,100.00
2022-08-24T08:36:17.923Z,100.00
2022-08-24T08:38:49.852Z,100.00
2022-08-24T08:41:42.402Z,99.81
2022-08-24T08:44:34.858Z,100.00
2022-08-24T08:47:11.406Z,100.00
2022-08-24T08:50:05.594Z,100.00
2022-08-24T08:53:04.799Z,99.82
2022-08-24T08:55:54.926Z,100.00
2022-08-24T08:58:33.834Z,100.00
2022-08-24T09:01:16.261Z,98.24
2022-08-24T09:04:05.315Z,96.70
2022-08-24T09:07:17.291Z,96.85
2022-08-24T09:10:10.093Z,98.63
2022-08-24T09:12:52.897Z,97.29
2022-08-24T09:15:47.755Z,98.59
2022-08-24T09:18:28.293Z,95.22
2022-08-24T09:21:14.337Z,93.46
2022-08-24T09:24:05.559Z,96.42
2022-08-24T09:27:16.118Z,91.13
2022-08-24T09:29:54.266Z,82.83
2022-08-24T09:32:59.851Z,77.21
2022-08-24T09:35:54.510Z,76.20
2022-08-24T09:38:42.695Z,74.49
2022-08-24T09:41:20.320Z,77.17
2022-08-24T09:44:17.145Z,73.86
2022-08-24T09:47:02.688Z,77.71
2022-08-24T09:49:38.671Z,80.58
2022-08-24T09:52:24.103Z,71.89
2022-08-24T09:55:00.055Z,67.70
2022-08-24T09:57:50.441Z,72.54
2022-08-24T10:00:30.800Z,68.51
2022-08-24T10:03:00.956Z,67.67
2022-08-24T10:05:36.827Z,69.42
2022-08-24T10:08:20.417Z,66.95
2022-08-24T10:11:04.827Z,65.62
2022-08-24T10:13:53.174Z,64.25
2022-08-24T10:16:44.922Z,64.91
2022-08-24T10:19:16.281Z,67.78
2022-08-24T10:21:48.211Z,67.24
2022-08-24T10:24:40.237Z,69.12
2022-08-24T10:27:31.778Z,66.06
2022-08-24T10:30:24.513Z,62.61
2022-08-24T10:33:13.687Z,59.88
2022-08-24T10:36:11.047Z,56.13
2022-08-24T10:39:16.144Z,55.19
2022-08-24T10:41:55.235Z,65.55
2022-08-24T10:44:38.671Z,67.42
2022-08-24T10:47:30.983Z,65.03
2022-08-24T10:50:17.598Z,56.17
2022-08-24T10:53:07.820Z,54.70
2022-08-24T10:55:35.747Z,52.29
2022-08-24T10:58:14.888Z,52.26
2022-08-24T11:00:42.311Z,51.30
2022-08-24T11:03:13.860Z,51.57
2022-08-24T11:05:45.553Z,51.34
2022-08-24T11:08:22.087Z,49.98
2022-08-24T11:11:13.789Z,50.82
2022-08-24T11:14:04.592Z,50.32
2022-08-24T11:16:38.060Z,50.79
2022-08-24T11:19:13.288Z,49.26
2022-08-24T11:21:45.884Z,49.25
2022-08-24T11:24:18.986Z,47.88
2022-08-24T11:26:53.780Z,46.80
2022-08-24T11:29:25.581Z,47.05
2022-08-24T11:31:52.913Z,46.70
2022-08-24T11:34:32.858Z,48.27
2022-08-24T11:37:00.314Z,46.71
2022-08-24T11:39:34.730Z,45.81
2022-08-24T11:42:04.330Z,45.06
2022-08-24T11:44:54.634Z,46.25
2022-08-24T11:47:49.462Z,45.75
2022-08-24T11:50:22.598Z,45.97
2022-08-24T11:53:12.314Z,45.63
2022-08-24T11:56:15.426Z,46.31
2022-08-24T11:58:55.468Z,45.97
2022-08-24T12:01:24.663Z,45.90
2022-08-24T12:04:10.001Z,46.28
2022-08-24T12:06:41.725Z,44.33
2022-08-24T12:09:17.365Z,43.88
2022-08-24T12:12:02.529Z,43.95
2022-08-24T12:14:54.979Z,43.84
2022-08-24T12:17:34.149Z,43.72
2022-08-24T12:20:06.260Z,43.35
2022-08-24T12:22:33.376Z,43.39
2022-08-24T12:25:23.785Z,44.22
2022-08-24T12:27:52.182Z,43.70
2022-08-24T12:30:19.016Z,44.60
2022-08-24T12:32:49.321Z,44.75
2022-08-24T12:35:23.962Z,43.17
2022-08-24T12:38:12.846Z,44.97
2022-08-24T12:40:53.453Z,43.79
2022-08-24T12:43:37.997Z,43.02
2022-08-24T12:46:06.806Z,43.20
2022-08-24T12:48:45.578Z,43.04
2022-08-24T12:52:09.057Z,42.94
2022-08-24T12:54:57.820Z,44.33
2022-08-24T12:58:30.874Z,42.65
2022-08-24T13:00:53.302Z,43.74
2022-08-24T13:03:38.254Z,43.90
2022-08-24T13:06:18.897Z,43.81
2022-08-24T13:08:49.300Z,43.46
2022-08-24T13:11:31.725Z,43.06
2022-08-24T13:14:22.004Z,42.82
2022-08-24T13:16:57.870Z,43.61
2022-08-24T13:19:31.190Z,44.25
2022-08-24T13:22:27.177Z,43.18
2022-08-24T13:25:02.770Z,43.49
2022-08-24T13:27:35.854Z,43.22
2022-08-24T13:30:17.887Z,43.22
2022-08-24T13:32:49.967Z,43.65
2022-08-24T13:36:07.935Z,43.15
2022-08-24T13:38:35.294Z,43.81
2022-08-24T13:41:08.429Z,44.22
2022-08-24T13:43:44.773Z,43.53
2022-08-24T13:46:22.801Z,43.47
2022-08-24T13:49:15.687Z,42.61
2022-08-24T13:51:47.286Z,42.92
2022-08-24T13:54:25.160Z,42.34
2022-08-24T13:57:14.969Z,42.59
2022-08-24T14:00:15.446Z,43.59
2022-08-24T14:03:17.478Z,42.99
2022-08-24T14:05:57.731Z,43.14
2022-08-24T14:08:51.145Z,42.58
2022-08-24T14:11:21.190Z,43.36
2022-08-24T14:14:30.976Z,43.05
2022-08-24T14:17:40.670Z,43.05
2022-08-24T14:20:10.103Z,42.82
2022-08-24T14:22:57.240Z,43.51
2022-08-24T14:25:30.321Z,43.32
2022-08-24T14:28:02.621Z,43.29
2022-08-24T14:30:29.640Z,42.46
2022-08-24T14:33:01.662Z,43.12
2022-08-24T14:35:36.078Z,42.76
2022-08-24T14:38:14.669Z,41.49
2022-08-24T14:41:19.919Z,41.31
2022-08-24T14:44:26.159Z,41.33
2022-08-24T14:47:41.085Z,43.07
2022-08-24T14:50:14.667Z,42.27
2022-08-24T14:52:56.627Z,42.34
2022-08-24T14:55:32.601Z,41.09
2022-08-24T14:58:32.965Z,41.36
2022-08-24T15:01:17.665Z,41.90
2022-08-24T15:04:30.759Z,43.62
2022-08-24T15:07:23.682Z,42.79
2022-08-24T15:09:51.564Z,41.91
2022-08-24T15:12:49.938Z,41.96
2022-08-24T15:15:40.166Z,40.97
2022-08-24T15:18:28.372Z,41.41
2022-08-24T15:21:15.854Z,41.87
2022-08-24T15:23:46.194Z,41.62
2022-08-24T15:26:23.716Z,41.42
2022-08-24T15:28:56.575Z,41.05
2022-08-24T15:31:29.157Z,40.60
2022-08-24T15:34:03.727Z,40.95
2022-08-24T15:36:33.986Z,41.00
2022-08-24T15:39:04.013Z,42.49
2022-08-24T15:41:38.335Z,42.54
2022-08-24T15:44:07.408Z,43.57
2022-08-24T15:46:49.289Z,43.57
2022-08-24T15:49:21.718Z,43.67
2022-08-24T15:51:53.487Z,43.79
2022-08-24T15:54:24.951Z,43.93
2022-08-24T15:57:02.401Z,44.24
2022-08-24T15:59:33.033Z,44.14
2022-08-24T16:02:28.673Z,44.23
2022-08-24T16:05:01.733Z,44.55
2022-08-24T16:07:44.426Z,45.22
2022-08-24T16:10:12.970Z,45.05
2022-08-24T16:12:39.999Z,44.97
2022-08-24T16:15:17.568Z,45.71
2022-08-24T16:17:56.076Z,46.05
2022-08-24T16:20:23.228Z,45.93
2022-08-24T16:23:30.404Z,45.48
2022-08-24T16:26:49.804Z,46.27
2022-08-24T16:29:36.572Z,46.63
2022-08-24T16:32:21.188Z,46.72
2022-08-24T16:35:20.653Z,46.77
2022-08-24T16:37:48.844Z,46.79
2022-08-24T16:40:16.908Z,46.46
2022-08-24T16:42:43.806Z,46.00
2022-08-24T16:45:14.944Z,46.41
2022-08-24T16:47:41.880Z,46.19
2022-08-24T16:50:08.923Z,46.48
2022-08-24T16:52:35.604Z,45.45
2022-08-24T16:55:02.463Z,45.35
2022-08-24T16:57:31.806Z,45.21
2022-08-24T16:59:58.673Z,45.24
2022-08-24T17:02:28.622Z,44.95
2022-08-24T17:04:56.201Z,45.21
2022-08-24T17:07:25.839Z,45.71
2022-08-24T17:09:53.425Z,46.04
2022-08-24T17:12:21.211Z,45.56
2022-08-24T17:14:48.246Z,45.61
2022-08-24T17:17:26.221Z,46.56
2022-08-24T17:19:54.744Z,46.78
2022-08-24T17:22:25.544Z,46.66
2022-08-24T17:24:52.580Z,47.10
2022-08-24T17:27:21.373Z,47.12
2022-08-24T17:29:48.037Z,47.31
2022-08-24T17:32:15.073Z,47.35
2022-08-24T17:34:42.544Z,47.45
2022-08-24T17:37:10.619Z,48.43
2022-08-24T17:39:37.625Z,49.10
2022-08-24T17:42:16.506Z,48.83
2022-08-24T17:44:52.108Z,49.22
2022-08-24T17:47:21.327Z,49.32
2022-08-24T17:49:48.650Z,49.40
2022-08-24T17:52:15.377Z,50.29
2022-08-24T17:54:42.183Z,49.78
2022-08-24T17:57:15.205Z,51.06
2022-08-24T17:59:43.797Z,50.93
2022-08-24T18:02:15.017Z,51.76
2022-08-24T18:04:43.938Z,51.99
2022-08-24T18:07:16.682Z,53.05
2022-08-24T18:09:54.294Z,53.87
2022-08-24T18:12:24.210Z,54.69
2022-08-24T18:14:52.388Z,55.48
2022-08-24T18:17:22.894Z,55.48
2022-08-24T18:19:50.473Z,55.87
2022-08-24T18:22:17.397Z,56.42
2022-08-24T18:24:44.738Z,56.63
2022-08-24T18:27:21.489Z,57.12
2022-08-24T18:29:54.764Z,57.80
2022-08-24T18:32:21.832Z,57.96
2022-08-24T18:34:48.924Z,58.37
2022-08-24T18:37:15.768Z,59.41
2022-08-24T18:39:42.708Z,59.95
2022-08-24T18:42:10.887Z,59.83
2022-08-24T18:44:40.066Z,60.39
2022-08-24T18:47:07.368Z,61.15
2022-08-24T18:49:35.586Z,61.03
2022-08-24T18:52:03.168Z,61.57
2022-08-24T18:54:35.721Z,61.79
2022-08-24T18:57:04.167Z,61.48
2022-08-24T18:59:40.951Z,61.43
2022-08-24T19:02:35.451Z,62.73
2022-08-24T19:05:11.217Z,62.17
2022-08-24T19:07:41.739Z,61.72
2022-08-24T19:10:11.333Z,62.76
2022-08-24T19:12:46.852Z,64.06
2022-08-24T19:15:32.028Z,64.27
2022-08-24T19:18:05.388Z,65.55
2022-08-24T19:20:35.625Z,65.62
2022-08-24T19:23:09.477Z,65.54
2022-08-24T19:25:37.553Z,66.24
2022-08-24T19:28:04.839Z,65.40
2022-08-24T19:30:31.742Z,66.06
2022-08-24T19:32:59.407Z,66.61
2022-08-24T19:35:26.275Z,68.27
2022-08-24T19:37:53.008Z,67.66
2022-08-24T19:40:22.663Z,68.06
2022-08-24T19:42:51.222Z,68.89
2022-08-24T19:45:39.375Z,69.54
2022-08-24T19:48:06.276Z,70.06
2022-08-24T19:50:35.865Z,70.58
2022-08-24T19:53:04.603Z,71.34
2022-08-24T19:55:32.606Z,71.74
2022-08-24T19:58:23.557Z,71.84
2022-08-24T20:01:06.057Z,72.41
2022-08-24T20:03:36.187Z,71.14
2022-08-24T20:06:03.088Z,71.69
2022-08-24T20:08:29.859Z,71.96
2022-08-24T20:10:59.016Z,71.84
2022-08-24T20:13:26.515Z,72.46
2022-08-24T20:15:54.330Z,71.71
2022-08-24T20:18:26.469Z,72.43
2022-08-24T20:20:53.258Z,72.84
2022-08-24T20:23:20.195Z,74.49
2022-08-24T20:25:49.333Z,74.72
2022-08-24T20:28:37.362Z,74.60
2022-08-24T20:31:04.173Z,75.09
2022-08-24T20:33:31.471Z,74.41
2022-08-24T20:35:58.799Z,75.68
2022-08-24T20:38:26.582Z,74.69
2022-08-24T20:41:00.316Z,75.55
2022-08-24T20:43:28.342Z,75.05
2022-08-24T20:45:58.311Z,74.91
2022-08-24T20:48:29.095Z,75.20
2022-08-24T20:50:56.604Z,75.91
2022-08-24T20:53:23.692Z,75.39
2022-08-24T20:55:50.560Z,75.73
2022-08-24T20:58:20.227Z,75.89
2022-08-24T21:00:47.696Z,76.45
2022-08-24T21:03:16.220Z,76.96
2022-08-24T21:05:43.602Z,77.47
2022-08-24T21:08:11.769Z,77.24
2022-08-24T21:10:42.611Z,77.70
2022-08-24T21:13:09.727Z,78.14
2022-08-24T21:15:40.812Z,79.13
2022-08-24T21:18:11.007Z,79.41
2022-08-24T21:20:38.563Z,79.82
2022-08-24T21:23:11.474Z,80.41
2022-08-24T21:25:38.582Z,80.19
2022-08-24T21:28:05.875Z,80.76
2022-08-24T21:30:35.532Z,81.00
2022-08-24T21:33:24.403Z,81.44
2022-08-24T21:35:54.949Z,81.58
2022-08-24T21:38:25.648Z,83.11
2022-08-24T21:40:52.634Z,83.38
2022-08-24T21:43:25.026Z,85.31
2022-08-24T21:46:21.456Z,84.74
2022-08-24T21:49:11.978Z,85.18
2022-08-24T21:51:39.850Z,83.21
2022-08-24T21:54:06.739Z,85.04
2022-08-24T21:56:34.791Z,83.01
2022-08-24T21:59:02.887Z,83.40
2022-08-24T22:01:29.712Z,84.07
2022-08-24T22:03:58.293Z,84.94
2022-08-24T22:06:29.238Z,84.59
2022-08-24T22:09:03.661Z,85.71
2022-08-24T22:11:31.171Z,85.49
2022-08-24T22:13:57.867Z,85.89
2022-08-24T22:16:26.015Z,86.85
2022-08-24T22:18:53.933Z,87.29
2022-08-24T22:21:23.688Z,87.45
2022-08-24T22:23:50.558Z,86.72
2022-08-24T22:26:17.699Z,88.22
2022-08-24T22:28:45.108Z,87.71
2022-08-24T22:31:21.834Z,89.01
2022-08-24T22:33:49.786Z,88.59
2022-08-24T22:36:17.243Z,88.12
2022-08-24T22:38:44.906Z,89.10
2022-08-24T22:41:11.916Z,89.52
2022-08-24T22:43:57.859Z,90.03
2022-08-24T22:46:28.177Z,90.12
2022-08-24T22:48:55.324Z,90.58
2022-08-24T22:51:23.797Z,90.42
2022-08-24T22:53:50.741Z,91.34
2022-08-24T22:56:28.840Z,91.69
2022-08-24T22:58:56.448Z,91.24
2022-08-24T23:01:27.318Z,91.40
2022-08-24T23:03:55.399Z,90.63
2022-08-24T23:06:22.251Z,91.68
2022-08-24T23:08:49.140Z,91.25
2022-08-24T23:11:16.269Z,90.93
2022-08-24T23:13:43.154Z,91.23
2022-08-24T23:16:13.094Z,91.48
2022-08-24T23:18:59.151Z,92.20
2022-08-24T23:21:26.237Z,92.31
2022-08-24T23:23:58.936Z,92.82
2022-08-24T23:26:26.001Z,95.11
2022-08-24T23:28:52.837Z,93.79
2022-08-24T23:31:21.797Z,94.51
2022-08-24T23:33:48.677Z,93.11
2022-08-24T23:36:21.043Z,93.28
2022-08-24T23:38:49.621Z,93.15
2022-08-24T23:41:18.514Z,94.40
2022-08-24T23:43:45.259Z,93.55
2022-08-24T23:46:12.255Z,94.11
2022-08-24T23:48:40.577Z,94.65
2022-08-24T23:51:12.508Z,94.03
2022-08-24T23:53:46.569Z,95.19
2022-08-24T23:56:21.007Z,95.16
2022-08-24T23:58:49.994Z,95.64
